createdAt,value
2019-02-21T00:00:33.864Z,0
2019-02-21T00:01:28.680Z,0
2019-02-21T00:02:28.654Z,0
2019-02-21T00:03:28.403Z,0
2019-02-21T00:04:28.627Z,0
2019-02-21T00:05:28.614Z,0
2019-02-21T00:06:28.339Z,0
2019-02-21T00:07:28.680Z,0
2019-02-21T00:08:28.309Z,0
2019-02-21T00:09:28.545Z,0
2019-02-21T00:10:28.532Z,0
2019-02-21T00:11:28.499Z,0
2019-02-21T00:12:28.486Z,0
2019-02-21T00:13:28.475Z,0
2019-02-21T00:14:28.462Z,0
2019-02-21T00:15:28.185Z,0
2019-02-21T00:16:28.162Z,0
2019-02-21T00:17:28.395Z,0
2019-02-21T00:18:28.393Z,0
2019-02-21T00:19:28.392Z,0
2019-02-21T00:20:28.345Z,0
2019-02-21T00:21:28.341Z,0
2019-02-21T00:22:27.976Z,0
2019-02-21T00:23:28.295Z,0
2019-02-21T00:24:28.036Z,0
2019-02-21T00:25:28.028Z,0
2019-02-21T00:26:27.993Z,0
2019-02-21T00:27:28.031Z,0
2019-02-21T00:28:28.210Z,0
2019-02-21T00:29:28.190Z,0
2019-02-21T00:30:37.693Z,0
2019-02-21T00:31:28.167Z,0
2019-02-21T00:32:28.145Z,0
2019-02-21T00:33:28.178Z,0
2019-02-21T00:34:28.127Z,0
2019-02-21T00:35:28.090Z,0
2019-02-21T00:36:28.078Z,0
2019-02-21T00:37:28.053Z,0
2019-02-21T00:38:28.037Z,0
2019-02-21T00:39:28.026Z,0
2019-02-21T00:40:27.759Z,0
2019-02-21T00:41:27.991Z,0
2019-02-21T00:42:28.175Z,0
2019-02-21T00:43:27.959Z,0
2019-02-21T00:44:28.027Z,0
2019-02-21T00:45:27.925Z,0
2019-02-21T00:46:27.913Z,0
2019-02-21T00:47:27.896Z,0
2019-02-21T00:48:27.867Z,0
2019-02-21T00:49:27.872Z,0
2019-02-21T00:50:27.857Z,0
2019-02-21T00:51:27.563Z,0
2019-02-21T00:52:27.555Z,0
2019-02-21T00:53:27.817Z,0
2019-02-21T00:54:27.529Z,0
2019-02-21T00:55:30.343Z,0
2019-02-21T00:56:27.246Z,0
2019-02-21T00:57:27.711Z,0
2019-02-21T00:58:27.694Z,0
2019-02-21T00:59:27.699Z,0
2019-02-21T01:00:27.420Z,0
2019-02-21T01:01:30.374Z,0
2019-02-21T01:02:27.623Z,0
2019-02-21T01:03:27.606Z,0
2019-02-21T01:04:27.428Z,0
2019-02-21T01:05:27.337Z,0
2019-02-21T01:06:27.567Z,0
2019-02-21T01:07:27.042Z,0
2019-02-21T01:08:27.525Z,0
2019-02-21T01:09:27.503Z,0
2019-02-21T01:10:27.240Z,0
2019-02-21T01:11:27.028Z,0
2019-02-21T01:12:27.458Z,0
2019-02-21T01:13:27.512Z,0
2019-02-21T01:14:27.432Z,0
2019-02-21T01:15:27.406Z,0
2019-02-21T01:16:27.147Z,0
2019-02-21T01:17:27.379Z,0
2019-02-21T01:18:27.352Z,0
2019-02-21T01:19:27.340Z,0
2019-02-21T01:20:27.322Z,0
2019-02-21T01:21:27.057Z,0
2019-02-21T01:22:27.282Z,0
2019-02-21T01:23:27.263Z,0
2019-02-21T01:24:27.012Z,0
2019-02-21T01:25:27.012Z,0
2019-02-21T01:26:27.144Z,0
2019-02-21T01:27:27.211Z,0
2019-02-21T01:28:27.184Z,0
2019-02-21T01:29:27.027Z,0
2019-02-21T01:30:27.157Z,0
2019-02-21T01:31:26.889Z,0
2019-02-21T01:32:27.115Z,0
2019-02-21T01:33:26.889Z,0
2019-02-21T01:34:26.831Z,0
2019-02-21T01:35:27.062Z,0
2019-02-21T01:36:26.808Z,0
2019-02-21T01:37:27.034Z,0
2019-02-21T01:38:27.036Z,0
2019-02-21T01:39:26.998Z,0
2019-02-21T01:40:26.738Z,0
2019-02-21T01:41:26.966Z,0
2019-02-21T01:42:26.688Z,0
2019-02-21T01:43:26.921Z,0
2019-02-21T01:44:26.905Z,0
2019-02-21T01:45:26.894Z,0
2019-02-21T01:46:26.880Z,0
2019-02-21T01:47:26.854Z,0
2019-02-21T01:48:26.840Z,0
2019-02-21T01:49:26.869Z,0
2019-02-21T01:50:26.807Z,0
2019-02-21T01:51:26.546Z,0
2019-02-21T01:52:26.531Z,0
2019-02-21T01:53:26.785Z,0
2019-02-21T01:54:26.741Z,0
2019-02-21T01:55:26.722Z,0
2019-02-21T01:56:26.457Z,0
2019-02-21T01:57:26.445Z,0
2019-02-21T01:58:26.662Z,0
2019-02-21T01:59:26.771Z,0
2019-02-21T02:00:26.634Z,0
2019-02-21T02:01:26.646Z,0
2019-02-21T02:02:26.620Z,0
2019-02-21T02:03:26.581Z,0
2019-02-21T02:04:26.739Z,0
2019-02-21T02:05:26.558Z,0
2019-02-21T02:06:26.532Z,0
2019-02-21T02:07:26.260Z,0
2019-02-21T02:08:26.494Z,0
2019-02-21T02:09:26.226Z,0
2019-02-21T02:10:26.229Z,0
2019-02-21T02:11:26.450Z,0
2019-02-21T02:12:26.536Z,0
2019-02-21T02:13:34.275Z,0
2019-02-21T02:14:26.396Z,0
2019-02-21T02:15:26.404Z,0
2019-02-21T02:16:26.373Z,0
2019-02-21T02:17:26.364Z,0
2019-02-21T02:18:26.406Z,0
2019-02-21T02:19:26.307Z,0
2019-02-21T02:20:26.286Z,0
2019-02-21T02:21:26.268Z,0
2019-02-21T02:22:26.252Z,0
2019-02-21T02:23:26.227Z,0
2019-02-21T02:24:26.309Z,0
2019-02-21T02:25:25.967Z,0
2019-02-21T02:26:26.181Z,0
2019-02-21T02:27:25.670Z,0
2019-02-21T02:28:26.148Z,0
2019-02-21T02:29:26.131Z,0
2019-02-21T02:30:26.132Z,0
2019-02-21T02:31:32.539Z,0
2019-02-21T02:32:26.088Z,0
2019-02-21T02:33:26.103Z,0
2019-02-21T02:34:26.058Z,0
2019-02-21T02:35:26.056Z,0
2019-02-21T02:36:25.782Z,0
2019-02-21T02:37:26.149Z,0
2019-02-21T02:38:25.734Z,0
2019-02-21T02:39:25.967Z,0
2019-02-21T02:40:25.730Z,0
2019-02-21T02:41:25.937Z,0
2019-02-21T02:42:25.908Z,0
2019-02-21T02:43:25.899Z,0
2019-02-21T02:44:25.885Z,0
2019-02-21T02:45:25.877Z,0
2019-02-21T02:46:25.853Z,0
2019-02-21T02:47:25.823Z,0
2019-02-21T02:48:25.554Z,0
2019-02-21T02:49:25.562Z,0
2019-02-21T02:50:25.808Z,0
2019-02-21T02:51:25.788Z,0
2019-02-21T02:52:25.766Z,0
2019-02-21T02:53:25.704Z,0
2019-02-21T02:54:25.547Z,0
2019-02-21T02:55:25.692Z,0
2019-02-21T02:56:25.669Z,0
2019-02-21T02:57:25.414Z,0
2019-02-21T02:58:25.634Z,0
2019-02-21T02:59:25.425Z,0
2019-02-21T03:00:25.606Z,0
2019-02-21T03:01:37.198Z,0
2019-02-21T03:02:25.058Z,0
2019-02-21T03:03:25.544Z,0
2019-02-21T03:04:25.691Z,0
2019-02-21T03:05:25.274Z,0
2019-02-21T03:06:25.501Z,0
2019-02-21T03:07:25.497Z,0
2019-02-21T03:08:25.455Z,0
2019-02-21T03:09:25.200Z,0
2019-02-21T03:10:25.415Z,0
2019-02-21T03:11:25.452Z,0
2019-02-21T03:12:25.157Z,0
2019-02-21T03:13:25.369Z,0
2019-02-21T03:14:25.365Z,0
2019-02-21T03:15:25.341Z,0
2019-02-21T03:16:25.113Z,0
2019-02-21T03:17:25.302Z,0
2019-02-21T03:18:25.319Z,0
2019-02-21T03:19:25.264Z,0
2019-02-21T03:20:25.255Z,0
2019-02-21T03:21:25.114Z,0
2019-02-21T03:22:25.220Z,0
2019-02-21T03:23:24.448Z,0
2019-02-21T03:24:25.171Z,0
2019-02-21T03:25:25.273Z,0
2019-02-21T03:26:25.160Z,0
2019-02-21T03:27:25.127Z,0
2019-02-21T03:28:24.876Z,0
2019-02-21T03:29:25.099Z,0
2019-02-21T03:30:25.124Z,0
2019-02-21T03:31:24.823Z,0
2019-02-21T03:32:25.079Z,0
2019-02-21T03:33:25.055Z,0
2019-02-21T03:34:25.066Z,0
2019-02-21T03:35:25.053Z,0
2019-02-21T03:36:24.765Z,0
2019-02-21T03:37:24.993Z,0
2019-02-21T03:38:25.097Z,0
2019-02-21T03:39:24.939Z,0
2019-02-21T03:40:24.915Z,0
2019-02-21T03:41:24.707Z,0
2019-02-21T03:42:24.387Z,0
2019-02-21T03:43:24.861Z,0
2019-02-21T03:44:24.836Z,0
2019-02-21T03:45:24.835Z,0
2019-02-21T03:46:24.817Z,0
2019-02-21T03:47:24.788Z,0
2019-02-21T03:48:24.525Z,0
2019-02-21T03:49:24.740Z,0
2019-02-21T03:50:24.644Z,0
2019-02-21T03:51:24.709Z,0
2019-02-21T03:52:24.689Z,0
2019-02-21T03:53:24.425Z,0
2019-02-21T03:54:24.658Z,0
2019-02-21T03:55:24.651Z,0
2019-02-21T03:56:24.372Z,0
2019-02-21T03:57:24.620Z,0
2019-02-21T03:58:24.594Z,0
2019-02-21T03:59:24.387Z,0
2019-02-21T04:00:24.343Z,0
2019-02-21T04:01:24.608Z,0
2019-02-21T04:02:24.334Z,0
2019-02-21T04:03:24.314Z,0
2019-02-21T04:04:24.513Z,0
2019-02-21T04:05:24.475Z,0
2019-02-21T04:06:24.467Z,0
2019-02-21T04:07:26.855Z,0
2019-02-21T04:08:24.174Z,0
2019-02-21T04:09:24.160Z,0
2019-02-21T04:10:24.133Z,0
2019-02-21T04:11:24.375Z,0
2019-02-21T04:12:24.366Z,0
2019-02-21T04:13:24.898Z,0
2019-02-21T04:14:25.914Z,0
2019-02-21T04:15:24.309Z,0
2019-02-21T04:16:24.304Z,0
2019-02-21T04:17:24.369Z,0
2019-02-21T04:18:24.291Z,0
2019-02-21T04:19:24.253Z,0
2019-02-21T04:20:23.979Z,0
2019-02-21T04:21:24.212Z,0
2019-02-21T04:22:24.184Z,0
2019-02-21T04:23:24.255Z,0
2019-02-21T04:24:24.169Z,0
2019-02-21T04:25:24.154Z,0
2019-02-21T04:26:23.884Z,0
2019-02-21T04:27:24.103Z,0
2019-02-21T04:28:24.094Z,0
2019-02-21T04:29:24.075Z,0
2019-02-21T04:30:24.059Z,0
2019-02-21T04:31:24.035Z,0
2019-02-21T04:32:26.644Z,0
2019-02-21T04:33:24.024Z,0
2019-02-21T04:34:23.992Z,0
2019-02-21T04:35:23.735Z,0
2019-02-21T04:36:26.017Z,0
2019-02-21T04:37:23.951Z,0
2019-02-21T04:38:23.450Z,0
2019-02-21T04:39:23.759Z,0
2019-02-21T04:40:23.654Z,0
2019-02-21T04:41:23.635Z,0
2019-02-21T04:42:23.939Z,0
2019-02-21T04:43:23.862Z,0
2019-02-21T04:44:23.850Z,0
2019-02-21T04:45:23.810Z,0
2019-02-21T04:46:23.798Z,0
2019-02-21T04:47:23.779Z,0
2019-02-21T04:48:23.811Z,0
2019-02-21T04:49:23.773Z,0
2019-02-21T04:50:23.488Z,0
2019-02-21T04:51:23.714Z,0
2019-02-21T04:52:23.687Z,0
2019-02-21T04:53:23.695Z,0
2019-02-21T04:54:23.658Z,0
2019-02-21T04:55:23.393Z,0
2019-02-21T04:56:23.618Z,0
2019-02-21T04:57:23.607Z,0
2019-02-21T04:58:23.621Z,0
2019-02-21T04:59:23.675Z,0
2019-02-21T05:00:23.568Z,0
2019-02-21T05:01:23.668Z,0
2019-02-21T05:02:35.523Z,0
2019-02-21T05:03:23.513Z,0
2019-02-21T05:04:23.500Z,0
2019-02-21T05:05:23.467Z,0
2019-02-21T05:06:23.456Z,0
2019-02-21T05:07:23.441Z,0
2019-02-21T05:08:23.427Z,0
2019-02-21T05:09:23.164Z,0
2019-02-21T05:10:23.383Z,0
2019-02-21T05:11:23.451Z,0
2019-02-21T05:12:23.363Z,0
2019-02-21T05:13:23.129Z,0
2019-02-21T05:14:23.320Z,0
2019-02-21T05:15:23.578Z,0
2019-02-21T05:16:23.287Z,0
2019-02-21T05:17:23.288Z,0
2019-02-21T05:18:23.355Z,0
2019-02-21T05:19:23.245Z,0
2019-02-21T05:20:23.220Z,0
2019-02-21T05:21:23.002Z,0
2019-02-21T05:22:23.201Z,0
2019-02-21T05:23:23.184Z,0
2019-02-21T05:24:22.665Z,0
2019-02-21T05:25:22.650Z,0
2019-02-21T05:26:22.879Z,0
2019-02-21T05:27:23.153Z,0
2019-02-21T05:28:23.100Z,0
2019-02-21T05:29:22.832Z,0
2019-02-21T05:30:23.547Z,0
2019-02-21T05:31:23.064Z,0
2019-02-21T05:32:23.028Z,0
2019-02-21T05:33:23.006Z,0
2019-02-21T05:34:22.736Z,0
2019-02-21T05:35:23.041Z,0
2019-02-21T05:36:22.739Z,0
2019-02-21T05:37:22.956Z,0
2019-02-21T05:38:22.949Z,0
2019-02-21T05:39:22.918Z,0
2019-02-21T05:40:22.890Z,0
2019-02-21T05:41:22.680Z,0
2019-02-21T05:42:22.873Z,0
2019-02-21T05:43:22.857Z,0
2019-02-21T05:44:22.849Z,0
2019-02-21T05:45:22.815Z,0
2019-02-21T05:46:22.798Z,0
2019-02-21T05:47:22.525Z,0
2019-02-21T05:48:22.784Z,0
2019-02-21T05:49:22.747Z,0
2019-02-21T05:50:22.750Z,0
2019-02-21T05:51:22.464Z,0
2019-02-21T05:52:22.699Z,0
2019-02-21T05:53:22.447Z,0
2019-02-21T05:54:22.708Z,0
2019-02-21T05:55:22.717Z,0
2019-02-21T05:56:22.637Z,0
2019-02-21T05:57:22.627Z,0
2019-02-21T05:58:22.363Z,0
2019-02-21T05:59:22.606Z,0
2019-02-21T06:00:22.582Z,0
2019-02-21T06:01:22.577Z,0
2019-02-21T06:02:22.295Z,0
2019-02-21T06:03:22.516Z,0
2019-02-21T06:04:24.325Z,0
2019-02-21T06:05:24.259Z,0
2019-02-21T06:06:24.259Z,0
2019-02-21T06:07:22.463Z,0
2019-02-21T06:08:22.432Z,0
2019-02-21T06:09:22.184Z,0
2019-02-21T06:10:22.413Z,0
2019-02-21T06:11:25.342Z,5
2019-02-21T06:12:33.042Z,5
2019-02-21T06:13:21.866Z,5
2019-02-21T06:14:22.340Z,5
2019-02-21T06:15:25.399Z,5
2019-02-21T06:16:22.079Z,5
2019-02-21T06:17:22.286Z,5
2019-02-21T06:18:24.871Z,10
2019-02-21T06:19:22.257Z,10
2019-02-21T06:20:25.055Z,10
2019-02-21T06:21:22.380Z,10
2019-02-21T06:22:21.952Z,10
2019-02-21T06:23:21.936Z,15
2019-02-21T06:24:22.178Z,15
2019-02-21T06:25:22.188Z,15
2019-02-21T06:26:22.195Z,15
2019-02-21T06:27:22.162Z,15
2019-02-21T06:28:22.176Z,20
2019-02-21T06:29:22.654Z,20
2019-02-21T06:30:22.073Z,20
2019-02-21T06:31:22.055Z,20
2019-02-21T06:32:24.110Z,20
2019-02-21T06:33:22.021Z,20
2019-02-21T06:34:22.022Z,20
2019-02-21T06:35:22.087Z,20
2019-02-21T06:36:22.000Z,20
2019-02-21T06:37:22.419Z,25
2019-02-21T06:38:21.483Z,25
2019-02-21T06:39:21.931Z,25
2019-02-21T06:40:21.915Z,25
2019-02-21T06:41:21.929Z,25
2019-02-21T06:42:21.881Z,25
2019-02-21T06:43:21.892Z,25
2019-02-21T06:44:21.613Z,25
2019-02-21T06:45:23.025Z,30
2019-02-21T06:46:23.406Z,30
2019-02-21T06:47:21.800Z,30
2019-02-21T06:48:21.534Z,30
2019-02-21T06:49:31.728Z,30
2019-02-21T06:50:33.675Z,30
2019-02-21T06:51:21.485Z,30
2019-02-21T06:52:22.626Z,35
2019-02-21T06:53:21.706Z,35
2019-02-21T06:54:22.515Z,35
2019-02-21T06:55:23.037Z,35
2019-02-21T06:56:21.787Z,40
2019-02-21T06:57:21.382Z,40
2019-02-21T06:58:21.617Z,40
2019-02-21T06:59:23.591Z,40
2019-02-21T07:00:21.587Z,45
2019-02-21T07:01:34.452Z,45
2019-02-21T07:02:23.218Z,50
2019-02-21T07:03:25.599Z,55
2019-02-21T07:04:21.513Z,55
2019-02-21T07:05:21.252Z,60
2019-02-21T07:06:34.469Z,65
2019-02-21T07:07:21.463Z,70
2019-02-21T07:08:21.452Z,75
2019-02-21T07:09:21.439Z,80
2019-02-21T07:10:21.207Z,80
2019-02-21T07:11:21.403Z,85
2019-02-21T07:12:21.145Z,90
2019-02-21T07:13:33.081Z,95
2019-02-21T07:14:20.906Z,100
2019-02-21T07:15:22.357Z,100
2019-02-21T07:16:22.473Z,105
2019-02-21T07:17:21.334Z,105
2019-02-21T07:18:21.287Z,105
2019-02-21T07:19:21.019Z,105
2019-02-21T07:20:22.585Z,105
2019-02-21T07:21:22.625Z,100
2019-02-21T07:22:29.536Z,100
2019-02-21T07:23:20.961Z,100
2019-02-21T07:24:22.979Z,105
2019-02-21T07:25:20.690Z,100
2019-02-21T07:26:21.157Z,100
2019-02-21T07:27:21.156Z,95
2019-02-21T07:28:27.702Z,90
2019-02-21T07:29:21.112Z,85
2019-02-21T07:30:30.433Z,85
2019-02-21T07:31:35.119Z,85
2019-02-21T07:32:21.083Z,90
2019-02-21T07:33:32.598Z,90
2019-02-21T07:34:21.052Z,95
2019-02-21T07:35:21.027Z,95
2019-02-21T07:36:21.008Z,95
2019-02-21T07:37:28.179Z,105
2019-02-21T07:38:21.857Z,110
2019-02-21T07:39:38.552Z,120
2019-02-21T07:40:29.527Z,125
2019-02-21T07:41:23.424Z,130
2019-02-21T07:42:20.937Z,135
2019-02-21T07:43:27.334Z,135
2019-02-21T07:44:22.073Z,140
2019-02-21T07:45:21.238Z,145
2019-02-21T07:46:20.847Z,145
2019-02-21T07:47:20.586Z,150
2019-02-21T07:48:20.570Z,160
2019-02-21T07:49:20.803Z,165
2019-02-21T07:50:23.006Z,170
2019-02-21T07:51:23.121Z,175
2019-02-21T07:52:20.754Z,175
2019-02-21T07:53:20.750Z,170
2019-02-21T07:54:20.718Z,170
2019-02-21T07:55:20.731Z,170
2019-02-21T07:56:20.711Z,160
2019-02-21T07:57:20.435Z,150
2019-02-21T07:58:20.671Z,140
2019-02-21T07:59:21.734Z,135
2019-02-21T08:00:20.642Z,130
2019-02-21T08:01:22.047Z,130
2019-02-21T08:02:23.363Z,130
2019-02-21T08:03:43.717Z,130
2019-02-21T08:04:20.573Z,135
2019-02-21T08:05:20.573Z,140
2019-02-21T08:06:22.440Z,140
2019-02-21T08:07:20.543Z,145
2019-02-21T08:08:21.042Z,145
2019-02-21T08:09:21.386Z,150
2019-02-21T08:10:22.446Z,155
2019-02-21T08:11:20.227Z,165
2019-02-21T08:12:23.002Z,175
2019-02-21T08:13:20.437Z,190
2019-02-21T08:14:23.253Z,195
2019-02-21T08:15:21.197Z,200
2019-02-21T08:16:21.897Z,205
2019-02-21T08:17:23.358Z,210
2019-02-21T08:18:20.380Z,215
2019-02-21T08:19:20.355Z,215
2019-02-21T08:20:20.385Z,215
2019-02-21T08:21:19.832Z,220
2019-02-21T08:22:20.329Z,220
2019-02-21T08:23:20.667Z,225
2019-02-21T08:24:20.047Z,230
2019-02-21T08:25:21.687Z,230
2019-02-21T08:26:22.599Z,225
2019-02-21T08:27:20.239Z,225
2019-02-21T08:28:20.241Z,220
2019-02-21T08:29:23.109Z,215
2019-02-21T08:30:20.277Z,210
2019-02-21T08:31:20.182Z,205
2019-02-21T08:32:20.176Z,200
2019-02-21T08:33:20.157Z,200
2019-02-21T08:34:19.892Z,195
2019-02-21T08:35:19.879Z,195
2019-02-21T08:36:20.111Z,195
2019-02-21T08:37:20.278Z,190
2019-02-21T08:38:21.750Z,190
2019-02-21T08:39:20.081Z,190
2019-02-21T08:40:20.079Z,190
2019-02-21T08:41:21.800Z,190
2019-02-21T08:42:20.066Z,190
2019-02-21T08:43:20.039Z,190
2019-02-21T08:44:20.014Z,190
2019-02-21T08:45:22.555Z,190
2019-02-21T08:46:23.102Z,195
2019-02-21T08:47:19.964Z,195
2019-02-21T08:48:22.714Z,195
2019-02-21T08:49:19.945Z,200
2019-02-21T08:50:22.067Z,200
2019-02-21T08:51:20.829Z,195
2019-02-21T08:52:19.899Z,185
2019-02-21T08:53:22.530Z,170
2019-02-21T08:54:21.067Z,150
2019-02-21T08:55:19.847Z,140
2019-02-21T08:56:19.657Z,135
2019-02-21T08:57:23.700Z,115
2019-02-21T08:58:19.820Z,105
2019-02-21T08:59:19.562Z,100
2019-02-21T09:00:20.545Z,95
2019-02-21T09:01:19.520Z,100
2019-02-21T09:02:19.504Z,100
2019-02-21T09:03:22.829Z,100
2019-02-21T09:04:35.898Z,95
2019-02-21T09:05:19.769Z,100
2019-02-21T09:06:19.701Z,115
2019-02-21T09:07:19.688Z,135
2019-02-21T09:08:32.609Z,160
2019-02-21T09:09:19.707Z,185
2019-02-21T09:10:19.689Z,190
2019-02-21T09:11:21.929Z,190
2019-02-21T09:12:19.695Z,185
2019-02-21T09:13:19.424Z,165
2019-02-21T09:14:19.442Z,150
2019-02-21T09:15:19.423Z,140
2019-02-21T09:16:22.536Z,140
2019-02-21T09:17:19.703Z,140
2019-02-21T09:18:19.673Z,145
2019-02-21T09:19:19.658Z,150
2019-02-21T09:20:19.691Z,150
2019-02-21T09:21:19.677Z,145
2019-02-21T09:22:19.519Z,145
2019-02-21T09:23:20.688Z,150
2019-02-21T09:24:44.867Z,165
2019-02-21T09:25:19.418Z,180
2019-02-21T09:26:21.505Z,205
2019-02-21T09:27:19.677Z,225
2019-02-21T09:28:20.643Z,225
2019-02-21T09:29:19.202Z,220
2019-02-21T09:30:19.684Z,210
2019-02-21T09:31:19.665Z,210
2019-02-21T09:32:19.719Z,220
2019-02-21T09:33:28.709Z,235
2019-02-21T09:34:30.338Z,235
2019-02-21T09:35:19.451Z,225
2019-02-21T09:36:19.684Z,215
2019-02-21T09:37:19.430Z,215
2019-02-21T09:38:19.456Z,210
2019-02-21T09:39:20.646Z,200
2019-02-21T09:40:20.462Z,185
2019-02-21T09:41:19.709Z,185
2019-02-21T09:42:19.847Z,190
2019-02-21T09:43:19.682Z,200
2019-02-21T09:44:20.692Z,215
2019-02-21T09:45:21.873Z,215
2019-02-21T09:46:19.701Z,220
2019-02-21T09:47:19.703Z,215
2019-02-21T09:48:21.674Z,200
2019-02-21T09:49:19.732Z,175
2019-02-21T09:50:19.713Z,160
2019-02-21T09:51:20.786Z,160
2019-02-21T09:52:19.674Z,170
2019-02-21T09:53:19.711Z,180
2019-02-21T09:54:21.540Z,180
2019-02-21T09:55:19.675Z,175
2019-02-21T09:56:29.727Z,175
2019-02-21T09:57:22.948Z,165
2019-02-21T09:58:19.723Z,160
2019-02-21T09:59:19.417Z,160
2019-02-21T10:00:19.746Z,160
2019-02-21T10:01:19.405Z,170
2019-02-21T10:02:19.627Z,180
2019-02-21T10:03:19.624Z,190
2019-02-21T10:04:19.621Z,200
2019-02-21T10:05:19.590Z,210
2019-02-21T10:06:19.136Z,215
2019-02-21T10:07:19.567Z,215
2019-02-21T10:08:21.815Z,230
2019-02-21T10:09:19.544Z,240
2019-02-21T10:10:19.545Z,245
2019-02-21T10:11:20.818Z,255
2019-02-21T10:12:19.528Z,265
2019-02-21T10:13:20.474Z,280
2019-02-21T10:14:21.424Z,300
2019-02-21T10:15:19.461Z,320
2019-02-21T10:16:19.210Z,340
2019-02-21T10:17:19.188Z,350
2019-02-21T10:18:19.218Z,360
2019-02-21T10:19:19.408Z,370
2019-02-21T10:20:19.403Z,365
2019-02-21T10:21:19.377Z,360
2019-02-21T10:22:19.381Z,350
2019-02-21T10:23:19.364Z,330
2019-02-21T10:24:19.364Z,315
2019-02-21T10:25:19.330Z,300
2019-02-21T10:26:19.343Z,285
2019-02-21T10:27:19.307Z,275
2019-02-21T10:28:19.297Z,275
2019-02-21T10:29:19.296Z,280
2019-02-21T10:30:20.621Z,295
2019-02-21T10:31:19.064Z,305
2019-02-21T10:32:19.254Z,320
2019-02-21T10:33:19.232Z,320
2019-02-21T10:34:21.655Z,325
2019-02-21T10:35:19.217Z,330
2019-02-21T10:36:19.203Z,330
2019-02-21T10:37:18.946Z,325
2019-02-21T10:38:19.196Z,310
2019-02-21T10:39:19.169Z,295
2019-02-21T10:40:19.173Z,280
2019-02-21T10:41:18.895Z,265
2019-02-21T10:42:19.170Z,250
2019-02-21T10:43:19.176Z,225
2019-02-21T10:44:19.123Z,200
2019-02-21T10:45:18.848Z,195
2019-02-21T10:46:19.091Z,200
2019-02-21T10:47:19.077Z,195
2019-02-21T10:48:19.083Z,190
2019-02-21T10:49:18.818Z,195
2019-02-21T10:50:21.207Z,200
2019-02-21T10:51:19.077Z,190
2019-02-21T10:52:18.794Z,160
2019-02-21T10:53:18.768Z,160
2019-02-21T10:54:18.992Z,155
2019-02-21T10:55:18.986Z,150
2019-02-21T10:56:18.972Z,150
2019-02-21T10:57:18.966Z,150
2019-02-21T10:58:18.955Z,165
2019-02-21T10:59:18.692Z,185
2019-02-21T11:00:18.933Z,200
2019-02-21T11:01:18.937Z,215
2019-02-21T11:02:18.915Z,215
2019-02-21T11:03:18.638Z,195
2019-02-21T11:04:18.623Z,195
2019-02-21T11:05:18.865Z,190
2019-02-21T11:06:18.873Z,185
2019-02-21T11:07:18.840Z,185
2019-02-21T11:08:18.913Z,190
2019-02-21T11:09:18.562Z,195
2019-02-21T11:10:21.546Z,200
2019-02-21T11:11:19.711Z,210
2019-02-21T11:12:18.533Z,220
2019-02-21T11:13:18.773Z,225
2019-02-21T11:14:18.534Z,245
2019-02-21T11:15:18.254Z,265
2019-02-21T11:16:18.737Z,280
2019-02-21T11:17:18.727Z,290
2019-02-21T11:18:18.793Z,285
2019-02-21T11:19:18.207Z,270
2019-02-21T11:20:18.436Z,250
2019-02-21T11:21:18.680Z,230
2019-02-21T11:22:18.668Z,220
2019-02-21T11:23:18.555Z,205
2019-02-21T11:24:18.640Z,180
2019-02-21T11:25:18.627Z,165
2019-02-21T11:26:19.657Z,160
2019-02-21T11:27:18.353Z,155
2019-02-21T11:28:18.591Z,150
2019-02-21T11:29:18.581Z,130
2019-02-21T11:30:18.564Z,115
2019-02-21T11:31:18.367Z,115
2019-02-21T11:32:18.287Z,130
2019-02-21T11:33:18.536Z,140
2019-02-21T11:34:18.269Z,145
2019-02-21T11:35:18.012Z,145
2019-02-21T11:36:18.243Z,140
2019-02-21T11:37:18.490Z,135
2019-02-21T11:38:18.541Z,135
2019-02-21T11:39:18.206Z,135
2019-02-21T11:40:18.448Z,135
2019-02-21T11:41:18.443Z,145
2019-02-21T11:42:18.418Z,155
2019-02-21T11:43:18.162Z,160
2019-02-21T11:44:18.392Z,155
2019-02-21T11:45:18.385Z,140
2019-02-21T11:46:18.377Z,140
2019-02-21T11:47:18.361Z,135
2019-02-21T11:48:18.656Z,135
2019-02-21T11:49:18.342Z,120
2019-02-21T11:50:18.335Z,110
2019-02-21T11:51:18.318Z,105
2019-02-21T11:52:19.674Z,105
2019-02-21T11:53:18.297Z,105
2019-02-21T11:54:29.510Z,95
2019-02-21T11:55:18.306Z,85
2019-02-21T11:56:20.564Z,75
2019-02-21T11:57:17.738Z,70
2019-02-21T11:58:18.223Z,70
2019-02-21T11:59:20.912Z,75
2019-02-21T12:00:17.954Z,80
2019-02-21T12:01:18.178Z,75
2019-02-21T12:02:18.172Z,75
2019-02-21T12:03:18.227Z,75
2019-02-21T12:04:18.148Z,90
2019-02-21T12:05:38.166Z,110
2019-02-21T12:06:17.893Z,115
2019-02-21T12:07:17.976Z,110
2019-02-21T12:08:17.841Z,100
2019-02-21T12:09:17.841Z,100
2019-02-21T12:10:18.100Z,110
2019-02-21T12:11:18.080Z,115
2019-02-21T12:12:20.014Z,110
2019-02-21T12:13:18.025Z,100
2019-02-21T12:14:18.030Z,100
2019-02-21T12:15:17.775Z,100
2019-02-21T12:16:18.016Z,95
2019-02-21T12:17:18.001Z,85
2019-02-21T12:18:17.968Z,90
2019-02-21T12:19:17.787Z,90
2019-02-21T12:20:17.955Z,85
2019-02-21T12:21:18.005Z,90
2019-02-21T12:22:17.910Z,90
2019-02-21T12:23:20.174Z,80
2019-02-21T12:24:17.886Z,80
2019-02-21T12:25:17.877Z,80
2019-02-21T12:26:17.610Z,85
2019-02-21T12:27:17.841Z,90
2019-02-21T12:28:17.334Z,85
2019-02-21T12:29:17.382Z,85
2019-02-21T12:30:17.553Z,85
2019-02-21T12:31:17.801Z,80
2019-02-21T12:32:17.878Z,80
2019-02-21T12:33:17.764Z,85
2019-02-21T12:34:17.757Z,85
2019-02-21T12:35:28.695Z,90
2019-02-21T12:36:17.726Z,90
2019-02-21T12:37:17.721Z,80
2019-02-21T12:38:17.196Z,80
2019-02-21T12:39:17.707Z,95
2019-02-21T12:40:17.184Z,100
2019-02-21T12:41:17.409Z,90
2019-02-21T12:42:17.644Z,90
2019-02-21T12:43:17.383Z,100
2019-02-21T12:44:17.652Z,110
2019-02-21T12:45:17.375Z,105
2019-02-21T12:46:17.686Z,115
2019-02-21T12:47:17.598Z,120
2019-02-21T12:48:17.309Z,125
2019-02-21T12:49:19.952Z,125
2019-02-21T12:50:17.533Z,115
2019-02-21T12:51:17.529Z,105
2019-02-21T12:52:17.526Z,90
2019-02-21T12:53:17.250Z,80
2019-02-21T12:54:17.514Z,80
2019-02-21T12:55:31.749Z,75
2019-02-21T12:56:17.224Z,80
2019-02-21T12:57:17.444Z,90
2019-02-21T12:58:17.433Z,95
2019-02-21T12:59:17.166Z,100
2019-02-21T13:00:17.414Z,100
2019-02-21T13:01:17.396Z,95
2019-02-21T13:02:17.380Z,75
2019-02-21T13:03:17.372Z,75
2019-02-21T13:04:17.100Z,75
2019-02-21T13:05:17.333Z,75
2019-02-21T13:06:17.331Z,80
2019-02-21T13:07:17.305Z,90
2019-02-21T13:08:17.295Z,100
2019-02-21T13:09:17.288Z,95
2019-02-21T13:10:17.280Z,80
2019-02-21T13:11:17.259Z,75
2019-02-21T13:12:17.008Z,75
2019-02-21T13:13:17.243Z,80
2019-02-21T13:14:16.979Z,95
2019-02-21T13:15:17.227Z,110
2019-02-21T13:16:17.199Z,120
2019-02-21T13:17:16.925Z,130
2019-02-21T13:18:25.304Z,145
2019-02-21T13:19:17.144Z,140
2019-02-21T13:20:17.160Z,130
2019-02-21T13:21:17.119Z,120
2019-02-21T13:22:17.249Z,125
2019-02-21T13:23:16.864Z,135
2019-02-21T13:24:17.087Z,140
2019-02-21T13:25:16.826Z,150
2019-02-21T13:26:17.056Z,155
2019-02-21T13:27:17.060Z,160
2019-02-21T13:28:17.102Z,170
2019-02-21T13:29:17.020Z,190
2019-02-21T13:30:16.783Z,200
2019-02-21T13:31:17.008Z,215
2019-02-21T13:32:16.527Z,225
2019-02-21T13:33:16.956Z,245
2019-02-21T13:34:16.712Z,265
2019-02-21T13:35:16.954Z,280
2019-02-21T13:36:16.694Z,275
2019-02-21T13:37:27.859Z,255
2019-02-21T13:38:16.889Z,245
2019-02-21T13:39:16.646Z,235
2019-02-21T13:40:16.649Z,235
2019-02-21T13:41:16.856Z,240
2019-02-21T13:42:16.592Z,240
2019-02-21T13:43:16.573Z,240
2019-02-21T13:44:16.833Z,235
2019-02-21T13:45:19.914Z,225
2019-02-21T13:46:16.549Z,225
2019-02-21T13:47:16.523Z,225
2019-02-21T13:48:16.773Z,230
2019-02-21T13:49:16.836Z,230
2019-02-21T13:50:16.765Z,240
2019-02-21T13:51:16.745Z,245
2019-02-21T13:52:16.799Z,240
2019-02-21T13:53:16.706Z,235
2019-02-21T13:54:16.694Z,230
2019-02-21T13:55:16.694Z,225
2019-02-21T13:56:16.706Z,225
2019-02-21T13:57:16.448Z,225
2019-02-21T13:58:16.653Z,220
2019-02-21T13:59:16.624Z,215
2019-02-21T14:00:16.652Z,215
2019-02-21T14:01:19.339Z,210
2019-02-21T14:02:17.789Z,205
2019-02-21T14:03:16.581Z,205
2019-02-21T14:04:16.570Z,205
2019-02-21T14:05:16.576Z,210
2019-02-21T14:06:18.999Z,210
2019-02-21T14:07:16.543Z,205
2019-02-21T14:08:16.533Z,200
2019-02-21T14:09:16.529Z,200
2019-02-21T14:10:16.501Z,200
2019-02-21T14:11:16.487Z,190
2019-02-21T14:12:16.249Z,180
2019-02-21T14:13:19.063Z,170
2019-02-21T14:14:16.456Z,170
2019-02-21T14:15:16.429Z,165
2019-02-21T14:16:16.178Z,165